Time;durP1;ratioP1;P1;durP2;ratioP2;P2;SDS_P1;SDS_P2;PMS_P1;PMS_P2;Temp;Humidity;BMP_temperature;BMP_pressure;BME280_temperature;BME280_humidity;BME280_pressure;Samples;Min_cycle;Max_cycle;Signal;HPM_P1;HPM_P2
2023/04/03 00:00:12;;;;;;;4.27;2.47;;;4.60;99.90;;;;;;5113874;28;20254;-81
2023/04/03 00:02:40;;;;;;;2.90;1.63;;;4.60;99.90;;;;;;5112658;28;20507;-82
2023/04/03 00:05:08;;;;;;;2.20;1.43;;;4.60;99.90;;;;;;5112412;28;20207;-81
2023/04/03 00:07:36;;;;;;;6.40;2.80;;;4.60;99.90;;;;;;5115966;27;20282;-84
2023/04/03 00:10:04;;;;;;;5.47;2.00;;;4.50;99.90;;;;;;5134020;27;20687;-83
2023/04/03 00:12:31;;;;;;;2.20;1.50;;;4.50;99.90;;;;;;5134186;27;20256;-82
2023/04/03 00:14:58;;;;;;;1.73;1.57;;;4.50;99.90;;;;;;5134006;27;20583;-82
2023/04/03 00:17:25;;;;;;;4.57;1.90;;;4.50;99.90;;;;;;5133029;27;20223;-81
2023/04/03 00:19:52;;;;;;;2.80;1.90;;;4.50;99.90;;;;;;5134103;27;20205;-82
2023/04/03 00:22:18;;;;;;;2.47;1.87;;;4.40;99.90;;;;;;5133982;28;20285;-81
2023/04/03 00:24:47;;;;;;;2.43;1.30;;;4.30;99.90;;;;;;5123368;28;20217;-84
2023/04/03 00:27:15;;;;;;;4.33;1.53;;;4.30;99.90;;;;;;5113316;28;20274;-80
2023/04/03 00:29:42;;;;;;;5.50;1.57;;;4.20;99.90;;;;;;5112944;28;20192;-81
2023/04/03 00:32:09;;;;;;;3.40;1.60;;;4.20;99.90;;;;;;5113129;28;20211;-81
2023/04/03 00:34:36;;;;;;;2.40;1.57;;;4.10;99.90;;;;;;5112759;28;20556;-82
2023/04/03 00:37:03;;;;;;;2.50;1.87;;;4.20;99.90;;;;;;5112871;28;20321;-82
2023/04/03 00:39:30;;;;;;;3.17;1.70;;;4.10;99.90;;;;;;5112098;28;20228;-85
2023/04/03 00:41:58;;;;;;;1.70;1.20;;;4.10;99.90;;;;;;5113451;28;20299;-81
2023/04/03 00:45:00;;;;;;;2.03;1.40;;;4.10;99.90;;;;;;5113787;28;20208;-83
2023/04/03 00:47:27;;;;;;;3.23;1.60;;;4.10;99.90;;;;;;5113858;28;20203;-85
2023/04/03 00:49:54;;;;;;;3.93;1.70;;;4.00;99.90;;;;;;5113989;28;20290;-84
2023/04/03 00:52:27;;;;;;;2.03;1.60;;;4.00;99.90;;;;;;5113396;28;20200;-79
2023/04/03 00:54:57;;;;;;;3.40;1.60;;;4.00;99.90;;;;;;5113568;28;20239;-83
2023/04/03 00:57:26;;;;;;;2.70;1.67;;;4.00;99.90;;;;;;5113298;28;20652;-81
2023/04/03 00:59:58;;;;;;;2.07;1.50;;;4.00;99.90;;;;;;5114044;28;20203;-82
2023/04/03 01:02:25;;;;;;;2.73;1.80;;;4.00;99.90;;;;;;5134135;28;20248;-82
2023/04/03 01:04:52;;;;;;;2.40;1.67;;;4.00;99.90;;;;;;5133250;28;20252;-81
2023/04/03 01:07:24;;;;;;;3.83;1.67;;;3.90;99.90;;;;;;5133742;28;20192;-81
2023/04/03 01:09:56;;;;;;;2.33;1.40;;;4.00;99.90;;;;;;5117428;28;20269;-81
2023/04/03 01:12:26;;;;;;;2.03;1.40;;;3.90;99.90;;;;;;5113115;28;20461;-80
2023/04/03 01:14:55;;;;;;;3.17;1.87;;;3.90;99.90;;;;;;5129355;27;20207;-82
2023/04/03 01:17:29;;;;;;;3.50;1.83;;;3.90;99.90;;;;;;5137266;27;20211;-81
2023/04/03 01:20:30;;;;;;;1.90;1.50;;;3.90;99.90;;;;;;5136805;27;20847;-85
2023/04/03 01:23:04;;;;;;;1.93;1.50;;;3.90;99.90;;;;;;5137397;27;20190;-82
2023/04/03 01:25:31;;;;;;;3.27;1.53;;;3.90;99.90;;;;;;5135872;27;20241;-84
2023/04/03 01:27:59;;;;;;;1.70;1.50;;;3.80;99.90;;;;;;5125142;27;20196;-84
2023/04/03 01:30:32;;;;;;;2.33;1.40;;;3.90;99.90;;;;;;5116574;28;20232;-80
2023/04/03 01:33:00;;;;;;;2.30;1.57;;;3.80;99.90;;;;;;5116255;28;20215;-83
2023/04/03 01:35:27;;;;;;;4.93;1.90;;;3.90;99.90;;;;;;5115881;28;20727;-81
2023/04/03 01:37:54;;;;;;;2.53;1.70;;;3.80;99.90;;;;;;5116412;28;20306;-81
2023/04/03 01:40:21;;;;;;;4.37;2.20;;;3.90;99.90;;;;;;5116251;28;20285;-80
2023/04/03 01:42:48;;;;;;;2.87;2.00;;;3.90;99.90;;;;;;5116603;27;20291;-81
2023/04/03 01:45:15;;;;;;;4.20;1.90;;;3.90;99.90;;;;;;5116078;28;20218;-80
2023/04/03 01:47:42;;;;;;;1.93;1.60;;;3.90;99.90;;;;;;5116314;28;20307;-79
2023/04/03 01:50:10;;;;;;;3.47;1.77;;;3.90;99.90;;;;;;5116106;27;20251;-80
2023/04/03 01:52:37;;;;;;;2.97;1.60;;;3.90;99.90;;;;;;5116006;28;20242;-82
2023/04/03 01:55:05;;;;;;;3.30;1.60;;;3.80;99.90;;;;;;5115578;28;20200;-80
2023/04/03 01:57:32;;;;;;;4.37;1.73;;;3.80;99.90;;;;;;5118598;27;20680;-81
2023/04/03 01:59:59;;;;;;;3.20;1.90;;;3.80;99.90;;;;;;5136024;27;20639;-83
2023/04/03 02:02:26;;;;;;;3.03;1.70;;;3.80;99.90;;;;;;5136163;27;20256;-80
2023/04/03 02:04:52;;;;;;;3.50;1.70;;;3.80;99.90;;;;;;5124848;27;20200;-84
2023/04/03 02:07:22;;;;;;;2.60;1.63;;;3.70;99.90;;;;;;5118165;27;20282;-88
2023/04/03 02:09:49;;;;;;;3.07;1.80;;;3.70;99.90;;;;;;5132122;27;20215;-87
2023/04/03 02:12:16;;;;;;;1.90;1.50;;;3.70;99.90;;;;;;5121798;27;20230;-81
2023/04/03 02:14:42;;;;;;;3.93;1.83;;;3.70;99.90;;;;;;5135599;27;20286;-82
2023/04/03 02:17:09;;;;;;;3.57;1.57;;;3.60;99.90;;;;;;5116076;27;20420;-81
2023/04/03 02:19:36;;;;;;;3.43;1.70;;;3.60;99.90;;;;;;5115936;27;20259;-83
2023/04/03 02:22:03;;;;;;;2.13;1.57;;;3.60;99.90;;;;;;5115551;28;20287;-80
2023/04/03 02:24:32;;;;;;;5.77;1.87;;;3.50;99.90;;;;;;5115159;28;20286;-80
2023/04/03 02:26:59;;;;;;;4.90;2.50;;;3.50;99.90;;;;;;5114405;28;20294;-81
2023/04/03 02:29:26;;;;;;;3.23;1.73;;;3.50;99.90;;;;;;5115507;28;20534;-80
2023/04/03 02:31:53;;;;;;;4.33;2.23;;;3.50;99.90;;;;;;5114378;28;20210;-80
2023/04/03 02:34:20;;;;;;;3.00;1.80;;;3.50;99.90;;;;;;5114716;27;20210;-80
2023/04/03 02:36:47;;;;;;;3.17;1.40;;;3.40;99.90;;;;;;5134076;27;20238;-82
2023/04/03 02:39:14;;;;;;;2.03;1.53;;;3.40;99.90;;;;;;5134751;27;20279;-87
2023/04/03 02:41:42;;;;;;;2.67;1.30;;;3.30;99.90;;;;;;5135243;27;20194;-81
2023/04/03 02:44:11;;;;;;;3.40;1.30;;;3.30;99.90;;;;;;5115174;27;20806;-81
2023/04/03 02:46:38;;;;;;;3.07;2.20;;;3.20;99.90;;;;;;5114687;28;20192;-81
2023/04/03 02:49:05;;;;;;;3.17;1.87;;;3.20;99.90;;;;;;5114782;27;20275;-81
2023/04/03 02:51:32;;;;;;;3.93;2.03;;;3.20;99.90;;;;;;5114314;28;20203;-81
2023/04/03 02:53:59;;;;;;;4.27;2.40;;;3.10;99.90;;;;;;5114961;27;20859;-82
2023/04/03 02:56:27;;;;;;;5.30;2.67;;;3.10;99.90;;;;;;5114494;28;20615;-82
2023/04/03 02:58:55;;;;;;;5.87;2.60;;;3.00;99.90;;;;;;5114060;28;20226;-80
2023/04/03 03:01:22;;;;;;;6.43;2.43;;;3.00;99.90;;;;;;5114712;28;20279;-81
2023/04/03 03:03:49;;;;;;;4.23;2.07;;;3.00;99.90;;;;;;5130137;27;20509;-82
2023/04/03 03:06:17;;;;;;;3.47;1.87;;;3.00;99.90;;;;;;5134932;27;20195;-88
2023/04/03 03:08:45;;;;;;;2.67;2.27;;;3.00;99.90;;;;;;5134438;27;20222;-84
2023/04/03 03:11:12;;;;;;;5.30;2.30;;;3.00;99.90;;;;;;5133969;27;20198;-82
2023/04/03 03:13:39;;;;;;;5.30;2.00;;;3.10;99.90;;;;;;5134549;27;20203;-83
2023/04/03 03:16:08;;;;;;;5.40;2.20;;;3.10;99.90;;;;;;5134671;27;20290;-80
2023/04/03 03:18:36;;;;;;;5.67;1.80;;;3.10;99.90;;;;;;5135251;27;20192;-80
2023/04/03 03:21:04;;;;;;;5.07;1.90;;;3.10;99.90;;;;;;5128244;27;20231;-81
2023/04/03 03:23:32;;;;;;;2.00;1.60;;;3.10;99.90;;;;;;5113875;28;20257;-82
2023/04/03 03:26:00;;;;;;;4.67;2.03;;;3.10;99.90;;;;;;5113790;28;20248;-83
2023/04/03 03:28:27;;;;;;;6.13;2.23;;;3.10;99.90;;;;;;5113408;28;20234;-82
2023/04/03 03:30:54;;;;;;;5.13;2.17;;;3.20;99.90;;;;;;5113893;28;20200;-81
2023/04/03 03:33:23;;;;;;;6.53;2.10;;;3.20;99.90;;;;;;5113447;28;20253;-81
2023/04/03 03:35:50;;;;;;;5.63;2.37;;;3.30;99.90;;;;;;5114833;27;20199;-84
2023/04/03 03:38:17;;;;;;;6.93;2.40;;;3.30;99.90;;;;;;5113571;28;20216;-82
2023/04/03 03:40:44;;;;;;;3.60;2.00;;;3.40;99.90;;;;;;5113334;28;20275;-90
2023/04/03 03:43:11;;;;;;;8.17;2.60;;;3.40;99.90;;;;;;5114574;28;20298;-86
2023/04/03 03:45:38;;;;;;;5.10;3.10;;;3.40;99.90;;;;;;5114370;28;20666;-84
2023/04/03 03:48:05;;;;;;;5.97;3.30;;;3.40;99.90;;;;;;5118339;27;20196;-86
2023/04/03 03:50:34;;;;;;;3.53;1.97;;;3.40;99.90;;;;;;5134701;27;20326;-86
2023/04/03 03:53:00;;;;;;;8.63;2.37;;;3.40;99.90;;;;;;5135350;27;20557;-83
2023/04/03 03:55:27;;;;;;;6.97;2.47;;;3.40;99.90;;;;;;5115246;27;20287;-83
2023/04/03 03:57:54;;;;;;;6.30;2.70;;;3.40;99.90;;;;;;5114567;28;20227;-81
2023/04/03 04:00:22;;;;;;;4.17;2.23;;;3.40;99.90;;;;;;5114145;28;20291;-82
2023/04/03 04:02:49;;;;;;;3.47;2.20;;;3.40;99.90;;;;;;5114515;28;20330;-89
2023/04/03 04:05:16;;;;;;;7.07;2.67;;;3.30;99.90;;;;;;5114262;28;20249;-88
2023/04/03 04:07:44;;;;;;;3.67;2.17;;;3.30;99.90;;;;;;5115083;27;20204;-83
2023/04/03 04:10:12;;;;;;;4.93;2.50;;;3.30;99.90;;;;;;5113631;28;20223;-82
2023/04/03 04:12:39;;;;;;;4.80;2.40;;;3.30;99.90;;;;;;5117282;28;20206;-86
2023/04/03 04:15:07;;;;;;;7.10;3.10;;;3.30;99.90;;;;;;5129909;27;20207;-82
2023/04/03 04:17:35;;;;;;;5.47;2.47;;;3.30;99.90;;;;;;5136519;27;20249;-83
2023/04/03 04:20:04;;;;;;;6.00;2.20;;;3.20;99.90;;;;;;5136463;27;20764;-82
2023/04/03 04:22:31;;;;;;;5.80;2.30;;;3.20;99.90;;;;;;5124193;28;20199;-83
2023/04/03 04:25:00;;;;;;;4.73;2.30;;;3.20;99.90;;;;;;5113443;28;20253;-86
2023/04/03 04:27:27;;;;;;;6.40;2.30;;;3.20;99.90;;;;;;5113784;28;20226;-80
2023/04/03 04:29:54;;;;;;;9.90;3.60;;;3.10;99.90;;;;;;5112667;28;20192;-81
2023/04/03 04:32:21;;;;;;;4.20;2.80;;;3.10;99.90;;;;;;5113305;28;20223;-81
2023/04/03 04:34:48;;;;;;;3.13;2.20;;;3.10;99.90;;;;;;5124271;28;20259;-82
2023/04/03 04:37:14;;;;;;;4.17;2.33;;;3.10;99.90;;;;;;5133179;28;20241;-83
2023/04/03 04:39:41;;;;;;;5.77;2.80;;;3.00;99.90;;;;;;5133932;28;20266;-82
2023/04/03 04:42:12;;;;;;;6.93;2.90;;;3.10;99.90;;;;;;5131665;28;20584;-82
2023/04/03 04:44:39;;;;;;;4.50;2.63;;;3.00;99.90;;;;;;5112860;28;20588;-81
2023/04/03 04:47:06;;;;;;;6.33;2.53;;;3.00;99.90;;;;;;5113518;28;20192;-83
2023/04/03 04:49:33;;;;;;;5.57;2.93;;;2.90;99.90;;;;;;5113376;28;20254;-82
2023/04/03 04:52:00;;;;;;;5.73;2.70;;;2.90;99.90;;;;;;5116390;28;20282;-81
2023/04/03 04:54:27;;;;;;;5.03;2.30;;;2.80;99.90;;;;;;5117765;28;20210;-83
2023/04/03 04:56:54;;;;;;;4.63;2.47;;;2.80;99.90;;;;;;5117758;27;20310;-81
2023/04/03 04:59:22;;;;;;;2.87;1.97;;;2.80;99.90;;;;;;5117302;28;20207;-82
2023/04/03 05:01:49;;;;;;;4.83;2.67;;;2.70;99.90;;;;;;5117119;28;20214;-82
2023/04/03 05:04:16;;;;;;;5.23;3.00;;;2.80;99.90;;;;;;5116908;28;20206;-82
2023/04/03 05:06:43;;;;;;;11.57;3.67;;;2.70;99.90;;;;;;5116571;28;20223;-87
2023/04/03 05:09:10;;;;;;;6.13;2.90;;;2.70;99.90;;;;;;5131823;27;20207;-82
2023/04/03 05:11:37;;;;;;;4.90;3.50;;;2.70;99.90;;;;;;5136943;27;20199;-82
2023/04/03 05:14:06;;;;;;;4.33;2.97;;;2.60;99.90;;;;;;5137402;27;20197;-82
2023/04/03 05:16:34;;;;;;;8.30;3.17;;;2.60;99.90;;;;;;5136467;27;20207;-82
2023/04/03 05:19:01;;;;;;;4.50;2.60;;;2.60;99.90;;;;;;5121699;27;20318;-81
2023/04/03 05:21:31;;;;;;;5.53;2.50;;;2.60;99.90;;;;;;5116860;28;20283;-81
2023/04/03 05:23:58;;;;;;;8.70;2.60;;;2.60;99.90;;;;;;5116476;28;20230;-81
2023/04/03 05:26:26;;;;;;;7.53;2.77;;;2.60;99.90;;;;;;5115777;27;20200;-82
2023/04/03 05:28:53;;;;;;;4.30;2.60;;;2.60;99.90;;;;;;5116207;28;20199;-83
2023/04/03 05:31:20;;;;;;;3.93;2.70;;;2.60;99.90;;;;;;5116540;28;20611;-80
2023/04/03 05:33:49;;;;;;;5.33;2.80;;;2.70;99.90;;;;;;5115552;28;20579;-81
2023/04/03 05:36:16;;;;;;;7.43;3.27;;;2.70;99.90;;;;;;5116135;27;20299;-82
2023/04/03 05:38:43;;;;;;;4.80;2.73;;;2.70;99.90;;;;;;5115678;28;20302;-81
2023/04/03 05:41:10;;;;;;;4.97;3.70;;;2.70;99.90;;;;;;5115755;28;20596;-87
2023/04/03 05:43:38;;;;;;;5.20;2.90;;;2.70;99.90;;;;;;5116491;28;20203;-80
2023/04/03 05:46:09;;;;;;;3.93;2.90;;;2.70;99.90;;;;;;5116027;27;20261;-80
2023/04/03 05:48:36;;;;;;;9.00;2.87;;;2.70;99.90;;;;;;5115669;28;20230;-80
2023/04/03 05:51:05;;;;;;;6.53;3.50;;;2.70;99.90;;;;;;5115851;28;20203;-79
2023/04/03 05:53:36;;;;;;;7.33;2.97;;;2.80;99.90;;;;;;5116064;28;20571;-82
2023/04/03 05:56:03;;;;;;;6.37;3.07;;;2.80;99.90;;;;;;5115087;28;20238;-80
2023/04/03 05:58:29;;;;;;;6.53;3.33;;;2.90;99.90;;;;;;5115669;28;20294;-80
2023/04/03 06:00:56;;;;;;;3.93;3.03;;;2.90;99.90;;;;;;5133627;27;20242;-80
2023/04/03 06:03:24;;;;;;;4.80;2.80;;;2.90;99.90;;;;;;5135339;27;20206;-80
2023/04/03 06:05:51;;;;;;;3.90;2.43;;;3.00;99.90;;;;;;5136231;27;20199;-79
2023/04/03 06:08:20;;;;;;;7.13;2.67;;;3.00;99.90;;;;;;5135362;27;20290;-81
2023/04/03 06:10:47;;;;;;;7.90;3.00;;;3.00;99.90;;;;;;5136444;27;20199;-82
2023/04/03 06:13:14;;;;;;;6.07;3.00;;;3.10;99.90;;;;;;5136118;27;20191;-80
2023/04/03 06:15:41;;;;;;;4.73;2.43;;;3.10;99.90;;;;;;5128376;27;20823;-81
2023/04/03 06:18:09;;;;;;;3.17;2.37;;;3.10;99.90;;;;;;5115956;28;20251;-82
2023/04/03 06:20:36;;;;;;;4.73;2.60;;;3.20;99.90;;;;;;5115803;28;20200;-82
2023/04/03 06:23:03;;;;;;;6.07;3.43;;;3.20;99.90;;;;;;5115725;27;20648;-82
2023/04/03 06:25:33;;;;;;;7.47;2.97;;;3.30;99.90;;;;;;5116287;28;20203;-81
2023/04/03 06:28:02;;;;;;;6.50;2.77;;;3.30;99.90;;;;;;5115437;27;20203;-79
2023/04/03 06:30:29;;;;;;;3.13;2.20;;;3.40;99.90;;;;;;5115246;28;20211;-80
2023/04/03 06:32:56;;;;;;;4.93;2.77;;;3.50;99.90;;;;;;5115340;28;20279;-81
2023/04/03 06:35:25;;;;;;;7.67;2.77;;;3.50;99.90;;;;;;5116573;27;20200;-83
2023/04/03 06:37:52;;;;;;;3.73;2.87;;;3.50;99.90;;;;;;5114938;28;20236;-83
2023/04/03 06:40:23;;;;;;;7.43;2.77;;;3.60;99.90;;;;;;5116241;28;20222;-82
2023/04/03 06:42:57;;;;;;;7.67;3.00;;;3.60;99.90;;;;;;5079778;27;20610;-82
2023/04/03 06:45:25;;;;;;;4.10;2.50;;;3.70;99.90;;;;;;5121263;27;20583;-81
2023/04/03 06:47:52;;;;;;;4.70;2.10;;;3.80;99.90;;;;;;5115758;27;20200;-80
2023/04/03 06:50:19;;;;;;;3.77;2.40;;;3.80;99.90;;;;;;5126916;27;20712;-86
2023/04/03 06:52:46;;;;;;;5.47;2.53;;;3.90;99.90;;;;;;5126034;27;20228;-79
2023/04/03 06:55:13;;;;;;;3.33;2.40;;;3.90;99.90;;;;;;5134505;27;20529;-82
2023/04/03 06:57:40;;;;;;;7.83;2.43;;;4.00;99.90;;;;;;5133332;27;20269;-81
2023/04/03 07:00:10;;;;;;;6.67;2.43;;;4.00;99.90;;;;;;5134600;27;20286;-81
2023/04/03 07:02:37;;;;;;;4.37;2.50;;;4.00;99.90;;;;;;5117369;27;20249;-81
2023/04/03 07:05:05;;;;;;;8.03;2.57;;;4.10;99.90;;;;;;5125810;27;20199;-82
2023/04/03 07:07:33;;;;;;;5.80;2.37;;;4.10;99.90;;;;;;5131006;27;20214;-82
2023/04/03 07:10:06;;;;;;;7.10;3.73;;;4.20;99.90;;;;;;5135538;27;20279;-81
2023/04/03 07:12:35;;;;;;;6.60;2.93;;;4.20;99.90;;;;;;5115100;27;20284;-80
2023/04/03 07:15:03;;;;;;;9.10;3.00;;;4.20;99.90;;;;;;5114683;28;20576;-82
2023/04/03 07:17:32;;;;;;;3.83;2.10;;;4.30;99.90;;;;;;5115361;28;20588;-83
2023/04/03 07:19:59;;;;;;;7.13;2.10;;;4.30;99.90;;;;;;5115019;28;20207;-81
2023/04/03 07:22:26;;;;;;;5.67;2.30;;;4.40;99.90;;;;;;5114619;28;20226;-81
2023/04/03 07:24:53;;;;;;;5.97;2.10;;;4.40;99.90;;;;;;5114139;28;20596;-82
2023/04/03 07:27:20;;;;;;;2.93;2.30;;;4.50;99.90;;;;;;5114398;27;20260;-80
2023/04/03 07:29:47;;;;;;;4.73;2.10;;;4.50;99.90;;;;;;5114425;27;20274;-81
2023/04/03 07:32:15;;;;;;;3.70;1.77;;;4.60;99.90;;;;;;5114401;28;20211;-81
2023/04/03 07:34:43;;;;;;;5.07;1.93;;;4.60;99.90;;;;;;5114066;28;20247;-79
2023/04/03 07:37:10;;;;;;;8.77;2.30;;;4.70;99.90;;;;;;5113379;27;20262;-80
2023/04/03 07:39:37;;;;;;;4.63;2.63;;;4.70;99.90;;;;;;5125052;27;20215;-81
2023/04/03 07:42:04;;;;;;;8.83;3.90;;;4.80;99.90;;;;;;5121841;27;20286;-81
2023/04/03 07:44:32;;;;;;;4.77;1.80;;;4.90;99.90;;;;;;5134222;27;20271;-80
2023/04/03 07:46:59;;;;;;;5.43;1.80;;;4.90;99.90;;;;;;5117040;27;20239;-80
2023/04/03 07:49:27;;;;;;;3.37;1.87;;;4.90;99.90;;;;;;5119026;27;20264;-81
2023/04/03 07:51:55;;;;;;;3.73;2.40;;;5.00;99.90;;;;;;5129855;27;20188;-81
2023/04/03 07:54:22;;;;;;;4.93;2.00;;;5.10;99.90;;;;;;5133047;27;20208;-85
2023/04/03 07:56:49;;;;;;;6.33;2.20;;;5.10;99.90;;;;;;5128044;27;20223;-81
2023/04/03 07:59:16;;;;;;;6.67;2.00;;;5.20;99.90;;;;;;5112275;28;20310;-84
2023/04/03 08:01:43;;;;;;;3.27;2.00;;;5.20;99.90;;;;;;5112419;28;20204;-81
2023/04/03 08:04:10;;;;;;;8.83;2.20;;;5.30;99.90;;;;;;5112989;28;20207;-84
2023/04/03 08:06:37;;;;;;;6.43;2.77;;;5.40;99.90;;;;;;5117978;27;20204;-82
2023/04/03 08:09:06;;;;;;;3.50;1.83;;;5.50;99.90;;;;;;5112035;28;20306;-84
2023/04/03 08:11:33;;;;;;;3.37;1.90;;;5.50;99.90;;;;;;5131231;27;20209;-80
2023/04/03 08:13:59;;;;;;;3.37;2.17;;;5.60;99.90;;;;;;5132973;27;20291;-81
2023/04/03 08:16:27;;;;;;;4.27;1.73;;;5.70;99.90;;;;;;5112980;27;20268;-82
2023/04/03 08:18:54;;;;;;;3.60;1.70;;;5.90;99.90;;;;;;5112001;28;20223;-79
2023/04/03 08:21:22;;;;;;;3.20;1.70;;;6.00;99.90;;;;;;5112079;28;20836;-80
2023/04/03 08:23:50;;;;;;;3.30;2.13;;;6.10;99.90;;;;;;5112294;28;20294;-81
2023/04/03 08:26:21;;;;;;;4.37;1.80;;;6.30;99.90;;;;;;5119423;28;20187;-80
2023/04/03 08:28:48;;;;;;;3.43;1.70;;;6.50;99.90;;;;;;5132602;28;20672;-80
2023/04/03 08:31:18;;;;;;;4.30;1.77;;;6.80;99.90;;;;;;5125061;28;20241;-80
2023/04/03 08:33:46;;;;;;;5.20;1.87;;;7.00;99.90;;;;;;5132135;28;20494;-80
2023/04/03 08:36:20;;;;;;;3.73;1.63;;;7.20;99.90;;;;;;5131843;28;20230;-81
2023/04/03 08:38:47;;;;;;;5.40;1.60;;;7.40;99.90;;;;;;5114806;28;20269;-78
2023/04/03 08:41:17;;;;;;;2.67;1.80;;;7.60;99.90;;;;;;5112562;28;20620;-79
2023/04/03 08:43:58;;;;;;;5.30;1.80;;;7.80;99.90;;;;;;5112171;28;20199;-80
2023/04/03 08:46:34;;;;;;;1.93;1.30;;;7.80;99.90;;;;;;5112777;28;20278;-80
2023/04/03 08:49:03;;;;;;;3.00;1.50;;;7.90;99.90;;;;;;5094778;28;20544;-80
2023/04/03 08:51:32;;;;;;;4.20;1.50;;;8.10;99.90;;;;;;5119810;28;20199;-80
2023/04/03 08:54:04;;;;;;;2.17;1.00;;;8.30;99.90;;;;;;5134010;28;20286;-80
2023/04/03 08:56:34;;;;;;;1.90;1.20;;;8.50;99.90;;;;;;5135274;27;20258;-80
2023/04/03 08:59:12;;;;;;;4.17;2.20;;;8.60;99.90;;;;;;5123795;28;20276;-80
2023/04/03 09:01:42;;;;;;;2.43;1.47;;;8.80;99.90;;;;;;5114781;28;20256;-79
2023/04/03 09:04:13;;;;;;;4.43;1.30;;;8.90;99.90;;;;;;5113381;28;20218;-80
2023/04/03 09:06:43;;;;;;;4.10;1.93;;;9.10;99.90;;;;;;5118489;28;20196;-79
2023/04/03 09:09:16;;;;;;;2.17;1.13;;;9.20;99.90;;;;;;5137294;28;20263;-82
2023/04/03 09:11:56;;;;;;;3.47;1.60;;;9.30;99.90;;;;;;5128319;28;20191;-85
2023/04/03 09:14:32;;;;;;;3.30;1.10;;;9.30;99.90;;;;;;5138620;28;20195;-85
2023/04/03 09:17:01;;;;;;;5.23;1.33;;;9.40;99.90;;;;;;5137465;28;20202;-86
2023/04/03 09:19:37;;;;;;;2.37;1.23;;;9.40;99.90;;;;;;5133758;28;20302;-89
2023/04/03 09:22:12;;;;;;;2.20;0.93;;;9.40;99.90;;;;;;5133175;28;20632;-80
2023/04/03 09:24:40;;;;;;;1.40;1.00;;;9.40;99.90;;;;;;5130371;28;20266;-91
2023/04/03 09:27:10;;;;;;;2.30;1.13;;;9.60;99.90;;;;;;5132076;28;20188;-82
2023/04/03 09:29:45;;;;;;;3.00;1.30;;;9.70;99.90;;;;;;5132892;28;20222;-80
2023/04/03 09:32:22;;;;;;;3.90;1.20;;;9.60;99.90;;;;;;5132892;28;20289;-88
2023/04/03 09:34:50;;;;;;;1.90;0.90;;;9.80;99.90;;;;;;5133387;28;20206;-80
2023/04/03 09:37:40;;;;;;;1.13;1.03;;;9.70;99.90;;;;;;5133568;27;20249;-79
2023/04/03 09:40:34;;;;;;;2.23;1.13;;;9.60;99.90;;;;;;5130050;27;20278;-79
2023/04/03 09:43:02;;;;;;;2.40;1.40;;;9.70;99.90;;;;;;5116061;27;20210;-80
2023/04/03 09:45:32;;;;;;;2.53;1.00;;;9.50;99.90;;;;;;5116730;28;20278;-85
2023/04/03 09:48:16;;;;;;;1.90;0.80;;;9.70;99.90;;;;;;5117335;28;20180;-83
2023/04/03 09:50:58;;;;;;;2.33;1.10;;;9.90;99.90;;;;;;5117039;28;20584;-83
2023/04/03 09:53:35;;;;;;;1.63;1.00;;;9.90;99.90;;;;;;5134838;27;20286;-84
2023/04/03 09:56:05;;;;;;;1.83;1.00;;;10.00;99.90;;;;;;5137874;27;20417;-80
2023/04/03 09:58:35;;;;;;;4.20;1.27;;;10.10;99.90;;;;;;5116123;28;20255;-82
2023/04/03 10:01:03;;;;;;;3.10;1.27;;;10.20;99.90;;;;;;5124190;27;20498;-84
2023/04/03 10:03:32;;;;;;;2.37;1.20;;;10.30;99.90;;;;;;5137925;27;20214;-83
2023/04/03 10:06:00;;;;;;;1.77;0.93;;;10.40;99.90;;;;;;5137540;27;20195;-81
2023/04/03 10:08:30;;;;;;;3.40;1.30;;;10.50;99.90;;;;;;5136879;27;20252;-79
2023/04/03 10:11:13;;;;;;;1.90;0.93;;;10.50;99.90;;;;;;5136477;27;20215;-82
2023/04/03 10:13:54;;;;;;;2.93;1.03;;;10.50;99.90;;;;;;5137376;27;20194;-82
2023/04/03 10:16:27;;;;;;;2.40;1.10;;;10.60;99.90;;;;;;5136996;27;20203;-84
2023/04/03 10:19:04;;;;;;;2.73;1.00;;;10.80;99.90;;;;;;5135996;27;20219;-81
2023/04/03 10:21:40;;;;;;;3.33;1.07;;;10.70;99.90;;;;;;5136421;27;20199;-83
2023/04/03 10:24:13;;;;;;;1.87;0.90;;;10.50;99.90;;;;;;5116529;27;20204;-81
2023/04/03 10:26:48;;;;;;;5.83;1.00;;;10.10;99.90;;;;;;5115556;28;20207;-81
2023/04/03 10:29:32;;;;;;;1.97;1.00;;;10.20;99.90;;;;;;5115747;28;20192;-82
2023/04/03 10:32:14;;;;;;;2.53;1.17;;;10.40;99.90;;;;;;5115689;28;20241;-81
2023/04/03 10:34:44;;;;;;;3.07;1.10;;;10.70;99.90;;;;;;5115669;27;20590;-82
2023/04/03 10:37:23;;;;;;;2.33;1.20;;;10.90;99.90;;;;;;5115337;28;20238;-82
2023/04/03 10:39:58;;;;;;;2.57;1.17;;;11.10;99.90;;;;;;5115345;27;20611;-81
2023/04/03 10:42:35;;;;;;;1.90;0.87;;;11.10;99.90;;;;;;5114715;28;20199;-80
2023/04/03 10:45:25;;;;;;;3.67;0.90;;;11.00;99.90;;;;;;5114699;28;20200;-82
2023/04/03 10:48:03;;;;;;;4.57;1.20;;;11.20;99.90;;;;;;5117586;27;20652;-81
2023/04/03 10:50:43;;;;;;;4.83;1.23;;;11.30;99.90;;;;;;5132646;27;20226;-82
2023/04/03 10:53:21;;;;;;;2.70;1.10;;;11.60;99.90;;;;;;5125262;27;20195;-81
2023/04/03 10:55:55;;;;;;;1.40;0.80;;;11.80;99.90;;;;;;5134640;27;20222;-84
2023/04/03 10:58:35;;;;;;;5.63;1.07;;;11.60;99.90;;;;;;5134075;27;20219;-78
2023/04/03 11:01:09;;;;;;;2.33;0.83;;;11.70;99.90;;;;;;5130187;27;20326;-79
2023/04/03 11:03:40;;;;;;;1.77;0.93;;;11.80;99.90;;;;;;5132288;27;20286;-80
2023/04/03 11:06:11;;;;;;;1.70;1.00;;;12.00;99.90;;;;;;5127124;27;20199;-80
2023/04/03 11:08:44;;;;;;;3.27;1.13;;;12.00;99.90;;;;;;5130880;27;20227;-80
2023/04/03 11:11:15;;;;;;;2.60;0.97;;;12.20;99.90;;;;;;5131265;27;20592;-82
2023/04/03 11:13:48;;;;;;;0.97;0.70;;;12.20;99.90;;;;;;5134010;27;20658;-84
2023/04/03 11:16:18;;;;;;;1.83;0.73;;;12.30;99.90;;;;;;5136456;27;20233;-86
2023/04/03 11:18:50;;;;;;;1.20;1.00;;;12.20;99.90;;;;;;5116715;27;20234;-85
2023/04/03 11:21:22;;;;;;;2.17;0.93;;;12.20;99.90;;;;;;5114640;28;20219;-88
2023/04/03 11:23:51;;;;;;;1.23;0.80;;;12.20;99.90;;;;;;5115302;28;20200;-88
2023/04/03 11:26:20;;;;;;;2.20;0.87;;;12.30;99.90;;;;;;5115454;28;20199;-90
2023/04/03 11:28:54;;;;;;;1.50;0.97;;;12.30;99.90;;;;;;5115477;28;20732;-91
2023/04/03 11:31:43;;;;;;;1.33;0.80;;;12.30;99.90;;;;;;5115970;27;20261;-91
2023/04/03 11:34:23;;;;;;;1.73;0.80;;;12.50;99.90;;;;;;5114366;28;20193;-86
2023/04/03 11:36:53;;;;;;;1.73;0.87;;;12.70;99.90;;;;;;5120504;27;20310;-85
2023/04/03 11:39:24;;;;;;;2.77;1.10;;;12.70;99.90;;;;;;5134350;27;20215;-89
2023/04/03 11:41:51;;;;;;;1.87;0.83;;;12.40;99.90;;;;;;5127081;27;20290;-89
2023/04/03 11:44:36;;;;;;;1.27;0.80;;;12.60;99.90;;;;;;5119509;27;20287;-91
2023/04/03 11:47:05;;;;;;;3.50;1.00;;;12.40;99.90;;;;;;5115765;27;20195;-89
2023/04/03 11:49:57;;;;;;;1.90;0.70;;;12.50;99.90;;;;;;5132072;27;20581;-86
2023/04/03 11:53:00;;;;;;;0.80;0.70;;;12.70;99.90;;;;;;5124255;27;20525;-89
2023/04/03 11:55:53;;;;;;;2.40;0.90;;;12.60;99.90;;;;;;5126627;27;20606;-84
2023/04/03 11:58:22;;;;;;;6.27;0.60;;;12.10;99.90;;;;;;5121391;27;20226;-86
2023/04/03 12:00:56;;;;;;;2.53;0.90;;;12.00;99.90;;;;;;5113805;28;20269;-85
2023/04/03 12:04:02;;;;;;;1.00;0.70;;;12.30;99.90;;;;;;5120192;27;20290;-90
2023/04/03 12:07:17;;;;;;;1.57;0.80;;;12.50;99.90;;;;;;5134476;27;20206;-85
2023/04/03 12:10:02;;;;;;;3.33;0.87;;;12.80;99.90;;;;;;5113614;27;20672;-84
2023/04/03 12:12:33;;;;;;;1.37;0.80;;;12.60;99.90;;;;;;5115324;27;20599;-87
2023/04/03 12:15:20;;;;;;;1.93;0.63;;;12.30;99.90;;;;;;5115487;28;20215;-86
2023/04/03 12:17:49;;;;;;;2.63;0.83;;;12.30;99.90;;;;;;5124826;27;20245;-88
2023/04/03 12:21:03;;;;;;;0.87;0.80;;;12.30;99.90;;;;;;5113914;28;20315;-88
2023/04/03 12:23:33;;;;;;;1.37;0.70;;;12.60;99.90;;;;;;5085845;28;20203;-89
2023/04/03 12:26:06;;;;;;;1.13;0.80;;;12.70;99.90;;;;;;5133702;28;20215;-82
2023/04/03 12:28:41;;;;;;;1.33;0.90;;;12.60;99.90;;;;;;5127869;28;20207;-85
2023/04/03 12:31:11;;;;;;;1.00;0.60;;;12.60;99.90;;;;;;5113717;28;20195;-84
2023/04/03 12:33:59;;;;;;;1.73;0.80;;;12.40;99.90;;;;;;5122796;28;20203;-83
2023/04/03 12:36:35;;;;;;;3.13;0.90;;;12.80;99.90;;;;;;5133145;28;21007;-84
2023/04/03 12:39:14;;;;;;;1.23;0.70;;;12.80;99.90;;;;;;5134186;28;20213;-86
2023/04/03 12:41:47;;;;;;;2.47;1.00;;;12.90;99.90;;;;;;5133654;28;20207;-84
2023/04/03 12:44:36;;;;;;;1.63;0.87;;;12.60;99.90;;;;;;5134311;28;20344;-92
2023/04/03 12:47:17;;;;;;;0.90;0.80;;;12.50;99.90;;;;;;5132353;28;20626;-91
2023/04/03 12:49:46;;;;;;;1.67;0.63;;;12.70;99.90;;;;;;5134059;28;20264;-83
2023/04/03 12:52:22;;;;;;;1.77;1.00;;;12.90;99.90;;;;;;5131548;28;20567;-82
2023/04/03 12:54:49;;;;;;;3.20;0.90;;;12.90;99.90;;;;;;5113623;28;20200;-89
2023/04/03 12:57:19;;;;;;;2.03;0.90;;;12.90;99.90;;;;;;5130738;27;20250;-83
2023/04/03 12:59:47;;;;;;;2.13;0.83;;;13.00;99.90;;;;;;5135651;28;20273;-90
2023/04/03 13:02:25;;;;;;;1.93;0.80;;;13.00;99.90;;;;;;5135608;28;20230;-82
2023/04/03 13:04:58;;;;;;;0.90;0.70;;;13.10;99.90;;;;;;5132909;28;20222;-83
2023/04/03 13:07:30;;;;;;;3.03;1.10;;;12.70;99.90;;;;;;5113449;28;20291;-85
2023/04/03 13:10:00;;;;;;;1.03;0.70;;;12.90;99.90;;;;;;5113057;28;20200;-81
2023/04/03 13:12:27;;;;;;;1.33;0.80;;;13.00;99.90;;;;;;5115895;28;20666;-80